Portada
METAR-TAF:

METAR-TAF

Aeroports :

Lawrence Municipal Airport

Lawrence, Massachusetts, Estats Units d'Amèrica

latitud: 42-42-47N, longitud: 071-07-33W, altitud: 45 m

Observació

L'informe es va fer fa 34 minuts, a les 08:54 UTC
Vent 7 kt del Sud-Oest
Temperatura 18°C
Humitat 83%
Pressió 1012 hPa
Visibilitat: 16.1 km
Cel ennuvolat a una alçada de 11000 ft
pluja

METAR: KLWM 160854Z AUTO 22007KT 10SM -RA BKN110 18/15 A2989 RMK AO2 SLP119 P0001 60002 T01780150 50003 $

Hora: 05:28 (09:28 UTC)


TAF: manca

Observacions i pronòstics meteorològics de més de 4000 aeroports (METAR i TAF).

Les estacions disponibles són els punts grocs i vermells al mapa.

Posi el ratolí al punt desitjat per veure el nom de l'estació.

Feu clic per veure les observacions i els pronòstics meteorològics.

Per canviar el mapa: feu clic els botons verds amb una creu de color negre per apropar; al botó verd amb un guió per allunyar la imatge; o en les fletxes verdes per a mapes adjacents.


METAR-TAF: